sensor_id;sensor_type;location;lat;lon;timestamp;temperature;humidity
5492;DHT22;2768;53.540;10.224;2024-01-07T00:02:40;1.00;1.00
5492;DHT22;2768;53.540;10.224;2024-01-07T00:08:35;0.90;1.00
5492;DHT22;2768;53.540;10.224;2024-01-07T00:14:30;1.00;1.00
5492;DHT22;2768;53.540;10.224;2024-01-07T00:20:23;1.00;1.00
5492;DHT22;2768;53.540;10.224;2024-01-07T00:26:17;0.90;1.00
5492;DHT22;2768;53.540;10.224;2024-01-07T00:32:11;0.90;1.00
5492;DHT22;2768;53.540;10.224;2024-01-07T00:38:06;0.80;1.00
5492;DHT22;2768;53.540;10.224;2024-01-07T00:43:59;0.90;1.00
5492;DHT22;2768;53.540;10.224;2024-01-07T00:49:53;0.80;1.00
5492;DHT22;2768;53.540;10.224;2024-01-07T00:55:47;0.80;1.00
5492;DHT22;2768;53.540;10.224;2024-01-07T01:01:40;0.80;1.00
5492;DHT22;2768;53.540;10.224;2024-01-07T01:07:35;0.70;1.00
5492;DHT22;2768;53.540;10.224;2024-01-07T01:13:29;0.70;1.00
5492;DHT22;2768;53.540;10.224;2024-01-07T01:19:24;0.50;99.90
5492;DHT22;2768;53.540;10.224;2024-01-07T01:25:20;0.70;1.00
5492;DHT22;2768;53.540;10.224;2024-01-07T01:31:14;0.60;1.00
5492;DHT22;2768;53.540;10.224;2024-01-07T01:37:08;0.40;1.00
5492;DHT22;2768;53.540;10.224;2024-01-07T01:43:03;0.40;1.00
5492;DHT22;2768;53.540;10.224;2024-01-07T01:48:57;0.40;1.00
5492;DHT22;2768;53.540;10.224;2024-01-07T01:54:51;0.50;1.00
5492;DHT22;2768;53.540;10.224;2024-01-07T02:00:46;0.40;1.00
5492;DHT22;2768;53.540;10.224;2024-01-07T02:06:40;0.50;1.00
5492;DHT22;2768;53.540;10.224;2024-01-07T02:12:34;0.60;1.00
5492;DHT22;2768;53.540;10.224;2024-01-07T02:18:29;0.50;1.00
5492;DHT22;2768;53.540;10.224;2024-01-07T02:24:24;0.60;1.00
5492;DHT22;2768;53.540;10.224;2024-01-07T02:30:17;0.70;1.00
5492;DHT22;2768;53.540;10.224;2024-01-07T02:36:10;0.60;1.00
5492;DHT22;2768;53.540;10.224;2024-01-07T02:42:05;0.60;1.00
5492;DHT22;2768;53.540;10.224;2024-01-07T02:47:59;0.50;1.00
5492;DHT22;2768;53.540;10.224;2024-01-07T02:53:52;0.60;1.00
5492;DHT22;2768;53.540;10.224;2024-01-07T02:59:47;0.50;1.00
5492;DHT22;2768;53.540;10.224;2024-01-07T03:05:41;0.40;1.00
5492;DHT22;2768;53.540;10.224;2024-01-07T03:11:39;0.60;1.00
5492;DHT22;2768;53.540;10.224;2024-01-07T03:17:34;0.50;1.00
5492;DHT22;2768;53.540;10.224;2024-01-07T03:23:28;0.50;1.00
5492;DHT22;2768;53.540;10.224;2024-01-07T03:29:21;0.60;1.00
5492;DHT22;2768;53.540;10.224;2024-01-07T03:35:16;0.50;1.00
5492;DHT22;2768;53.540;10.224;2024-01-07T03:41:15;0.70;1.00
5492;DHT22;2768;53.540;10.224;2024-01-07T03:47:09;0.70;1.00
5492;DHT22;2768;53.540;10.224;2024-01-07T03:53:04;0.80;1.00
5492;DHT22;2768;53.540;10.224;2024-01-07T03:58:57;0.80;1.00
5492;DHT22;2768;53.540;10.224;2024-01-07T04:04:51;0.70;1.00
5492;DHT22;2768;53.540;10.224;2024-01-07T04:10:46;0.80;1.00
5492;DHT22;2768;53.540;10.224;2024-01-07T04:16:39;0.90;1.00
5492;DHT22;2768;53.540;10.224;2024-01-07T04:22:33;0.90;1.00
5492;DHT22;2768;53.540;10.224;2024-01-07T04:28:27;0.80;1.00
5492;DHT22;2768;53.540;10.224;2024-01-07T04:34:21;0.80;1.00
5492;DHT22;2768;53.540;10.224;2024-01-07T04:40:15;0.90;1.00
5492;DHT22;2768;53.540;10.224;2024-01-07T04:46:10;0.90;1.00
5492;DHT22;2768;53.540;10.224;2024-01-07T04:52:05;0.70;1.00
5492;DHT22;2768;53.540;10.224;2024-01-07T04:57:58;0.90;1.00
5492;DHT22;2768;53.540;10.224;2024-01-07T05:03:53;0.70;1.00
5492;DHT22;2768;53.540;10.224;2024-01-07T05:09:47;0.80;1.00
5492;DHT22;2768;53.540;10.224;2024-01-07T05:15:40;1.00;1.00
5492;DHT22;2768;53.540;10.224;2024-01-07T05:21:35;0.90;1.00
5492;DHT22;2768;53.540;10.224;2024-01-07T05:27:29;0.90;1.00
5492;DHT22;2768;53.540;10.224;2024-01-07T05:33:22;1.00;1.00
5492;DHT22;2768;53.540;10.224;2024-01-07T05:39:17;0.90;1.00
5492;DHT22;2768;53.540;10.224;2024-01-07T05:45:10;1.10;1.00
5492;DHT22;2768;53.540;10.224;2024-01-07T05:51:04;0.90;1.00
5492;DHT22;2768;53.540;10.224;2024-01-07T05:56:59;0.90;1.00
5492;DHT22;2768;53.540;10.224;2024-01-07T06:02:52;0.90;1.00
5492;DHT22;2768;53.540;10.224;2024-01-07T06:08:46;0.90;1.00
5492;DHT22;2768;53.540;10.224;2024-01-07T06:14:41;0.90;1.00
5492;DHT22;2768;53.540;10.224;2024-01-07T06:20:34;1.00;1.00
5492;DHT22;2768;53.540;10.224;2024-01-07T06:26:28;0.90;1.00
5492;DHT22;2768;53.540;10.224;2024-01-07T06:32:23;1.00;1.00
5492;DHT22;2768;53.540;10.224;2024-01-07T06:38:17;0.90;1.00
5492;DHT22;2768;53.540;10.224;2024-01-07T06:44:10;1.00;1.00
5492;DHT22;2768;53.540;10.224;2024-01-07T06:50:06;1.00;1.00
5492;DHT22;2768;53.540;10.224;2024-01-07T06:55:59;1.10;1.00
5492;DHT22;2768;53.540;10.224;2024-01-07T07:01:52;1.20;1.00
5492;DHT22;2768;53.540;10.224;2024-01-07T07:07:49;1.20;1.00
5492;DHT22;2768;53.540;10.224;2024-01-07T07:13:46;1.30;1.00
5492;DHT22;2768;53.540;10.224;2024-01-07T07:19:39;1.00;1.00
5492;DHT22;2768;53.540;10.224;2024-01-07T07:25:38;0.90;1.00
5492;DHT22;2768;53.540;10.224;2024-01-07T07:31:31;0.80;1.00
5492;DHT22;2768;53.540;10.224;2024-01-07T07:37:25;1.00;1.00
5492;DHT22;2768;53.540;10.224;2024-01-07T07:43:20;1.10;1.00
5492;DHT22;2768;53.540;10.224;2024-01-07T07:49:13;1.10;1.00
5492;DHT22;2768;53.540;10.224;2024-01-07T07:55:08;0.90;1.00
5492;DHT22;2768;53.540;10.224;2024-01-07T08:01:03;0.70;1.00
5492;DHT22;2768;53.540;10.224;2024-01-07T08:06:57;0.60;1.00
5492;DHT22;2768;53.540;10.224;2024-01-07T08:12:51;0.80;1.00
5492;DHT22;2768;53.540;10.224;2024-01-07T08:18:46;0.50;1.00
5492;DHT22;2768;53.540;10.224;2024-01-07T08:24:39;0.60;1.00
5492;DHT22;2768;53.540;10.224;2024-01-07T08:30:33;0.70;1.00
5492;DHT22;2768;53.540;10.224;2024-01-07T08:36:28;0.90;1.00
5492;DHT22;2768;53.540;10.224;2024-01-07T08:42:26;0.90;1.00
5492;DHT22;2768;53.540;10.224;2024-01-07T08:48:21;0.90;1.00
5492;DHT22;2768;53.540;10.224;2024-01-07T08:54:17;0.60;1.00
5492;DHT22;2768;53.540;10.224;2024-01-07T09:00:11;0.80;1.00
5492;DHT22;2768;53.540;10.224;2024-01-07T09:06:04;1.10;1.00
5492;DHT22;2768;53.540;10.224;2024-01-07T09:11:59;0.90;1.00
5492;DHT22;2768;53.540;10.224;2024-01-07T09:17:52;1.10;1.00
5492;DHT22;2768;53.540;10.224;2024-01-07T09:23:46;1.00;1.00
5492;DHT22;2768;53.540;10.224;2024-01-07T09:29:41;1.60;1.00
5492;DHT22;2768;53.540;10.224;2024-01-07T09:35:34;1.50;1.00
5492;DHT22;2768;53.540;10.224;2024-01-07T09:41:28;1.70;1.00
5492;DHT22;2768;53.540;10.224;2024-01-07T09:47:23;2.10;1.00
5492;DHT22;2768;53.540;10.224;2024-01-07T09:53:16;2.50;1.00
5492;DHT22;2768;53.540;10.224;2024-01-07T09:59:11;2.90;99.90
5492;DHT22;2768;53.540;10.224;2024-01-07T10:05:06;3.10;99.90
5492;DHT22;2768;53.540;10.224;2024-01-07T10:11:00;3.60;99.90
5492;DHT22;2768;53.540;10.224;2024-01-07T10:17:14;4.10;99.90
5492;DHT22;2768;53.540;10.224;2024-01-07T10:23:11;3.40;99.90
5492;DHT22;2768;53.540;10.224;2024-01-07T10:29:09;3.10;99.90
5492;DHT22;2768;53.540;10.224;2024-01-07T10:35:04;2.50;99.90
5492;DHT22;2768;53.540;10.224;2024-01-07T10:41:00;2.50;99.90
5492;DHT22;2768;53.540;10.224;2024-01-07T10:46:54;2.50;99.90
5492;DHT22;2768;53.540;10.224;2024-01-07T10:52:50;2.70;99.90
5492;DHT22;2768;53.540;10.224;2024-01-07T10:58:48;3.70;99.90
5492;DHT22;2768;53.540;10.224;2024-01-07T11:04:48;3.50;99.90
5492;DHT22;2768;53.540;10.224;2024-01-07T11:10:50;2.70;99.90
5492;DHT22;2768;53.540;10.224;2024-01-07T11:16:46;2.80;99.90
5492;DHT22;2768;53.540;10.224;2024-01-07T11:22:41;2.50;99.90
5492;DHT22;2768;53.540;10.224;2024-01-07T11:28:47;2.40;99.90
5492;DHT22;2768;53.540;10.224;2024-01-07T11:34:43;2.20;99.90
5492;DHT22;2768;53.540;10.224;2024-01-07T11:40:40;1.90;99.90
5492;DHT22;2768;53.540;10.224;2024-01-07T11:46:33;2.10;99.90
5492;DHT22;2768;53.540;10.224;2024-01-07T11:52:29;2.00;99.90
5492;DHT22;2768;53.540;10.224;2024-01-07T11:58:23;1.50;99.90
5492;DHT22;2768;53.540;10.224;2024-01-07T12:04:16;1.50;99.90
5492;DHT22;2768;53.540;10.224;2024-01-07T12:10:11;1.50;99.90
5492;DHT22;2768;53.540;10.224;2024-01-07T12:16:06;1.40;99.90
5492;DHT22;2768;53.540;10.224;2024-01-07T12:22:02;1.30;99.90
5492;DHT22;2768;53.540;10.224;2024-01-07T12:27:58;1.00;99.90
5492;DHT22;2768;53.540;10.224;2024-01-07T12:33:52;1.90;99.90
5492;DHT22;2768;53.540;10.224;2024-01-07T12:39:47;2.50;99.90
5492;DHT22;2768;53.540;10.224;2024-01-07T12:45:43;3.50;99.90
5492;DHT22;2768;53.540;10.224;2024-01-07T12:51:38;4.40;99.90
5492;DHT22;2768;53.540;10.224;2024-01-07T12:57:32;4.70;99.90
5492;DHT22;2768;53.540;10.224;2024-01-07T13:03:28;4.90;99.90
5492;DHT22;2768;53.540;10.224;2024-01-07T13:09:22;5.20;99.90
5492;DHT22;2768;53.540;10.224;2024-01-07T13:15:16;5.10;99.90
5492;DHT22;2768;53.540;10.224;2024-01-07T13:21:11;5.10;99.90
5492;DHT22;2768;53.540;10.224;2024-01-07T13:27:05;5.20;99.90
5492;DHT22;2768;53.540;10.224;2024-01-07T13:33:00;5.20;99.90
5492;DHT22;2768;53.540;10.224;2024-01-07T13:38:59;4.90;99.90
5492;DHT22;2768;53.540;10.224;2024-01-07T13:44:57;4.70;99.90
5492;DHT22;2768;53.540;10.224;2024-01-07T13:50:50;4.50;99.90
5492;DHT22;2768;53.540;10.224;2024-01-07T13:56:48;3.60;99.90
5492;DHT22;2768;53.540;10.224;2024-01-07T14:02:46;3.80;99.90
5492;DHT22;2768;53.540;10.224;2024-01-07T14:08:39;3.40;99.90
5492;DHT22;2768;53.540;10.224;2024-01-07T14:14:35;3.50;99.90
5492;DHT22;2768;53.540;10.224;2024-01-07T14:20:29;3.60;99.90
5492;DHT22;2768;53.540;10.224;2024-01-07T14:26:22;2.90;99.90
5492;DHT22;2768;53.540;10.224;2024-01-07T14:32:20;2.70;99.90
5492;DHT22;2768;53.540;10.224;2024-01-07T14:38:14;2.60;99.90
5492;DHT22;2768;53.540;10.224;2024-01-07T14:44:07;1.90;99.90
5492;DHT22;2768;53.540;10.224;2024-01-07T14:50:06;1.90;99.90
5492;DHT22;2768;53.540;10.224;2024-01-07T14:56:00;1.80;99.90
5492;DHT22;2768;53.540;10.224;2024-01-07T15:01:54;1.80;99.90
5492;DHT22;2768;53.540;10.224;2024-01-07T15:07:49;0.70;99.90
5492;DHT22;2768;53.540;10.224;2024-01-07T15:13:45;0.50;99.90
5492;DHT22;2768;53.540;10.224;2024-01-07T15:19:39;0.30;99.90
5492;DHT22;2768;53.540;10.224;2024-01-07T15:25:34;-0.10;99.90
5492;DHT22;2768;53.540;10.224;2024-01-07T15:31:27;-0.30;99.90
5492;DHT22;2768;53.540;10.224;2024-01-07T15:37:21;-0.30;99.90
5492;DHT22;2768;53.540;10.224;2024-01-07T15:43:17;-0.30;99.90
5492;DHT22;2768;53.540;10.224;2024-01-07T15:49:10;-0.60;99.90
5492;DHT22;2768;53.540;10.224;2024-01-07T15:55:04;-0.50;99.90
5492;DHT22;2768;53.540;10.224;2024-01-07T16:00:59;-0.70;99.90
5492;DHT22;2768;53.540;10.224;2024-01-07T16:06:56;-0.30;99.90
5492;DHT22;2768;53.540;10.224;2024-01-07T16:12:49;-0.30;99.90
5492;DHT22;2768;53.540;10.224;2024-01-07T16:18:44;-0.30;99.90
5492;DHT22;2768;53.540;10.224;2024-01-07T16:24:38;-0.60;99.90
5492;DHT22;2768;53.540;10.224;2024-01-07T16:30:32;-0.60;99.90
5492;DHT22;2768;53.540;10.224;2024-01-07T16:36:29;-0.80;99.90
5492;DHT22;2768;53.540;10.224;2024-01-07T16:42:26;-0.40;99.90
5492;DHT22;2768;53.540;10.224;2024-01-07T16:48:20;-0.40;99.90
5492;DHT22;2768;53.540;10.224;2024-01-07T16:54:35;-0.40;99.90
5492;DHT22;2768;53.540;10.224;2024-01-07T17:00:29;-0.30;99.90
5492;DHT22;2768;53.540;10.224;2024-01-07T17:07:04;-0.40;99.90
5492;DHT22;2768;53.540;10.224;2024-01-07T17:12:59;-0.40;99.90
5492;DHT22;2768;53.540;10.224;2024-01-07T17:18:52;-0.40;99.90
5492;DHT22;2768;53.540;10.224;2024-01-07T17:24:46;-0.20;99.90
5492;DHT22;2768;53.540;10.224;2024-01-07T17:30:41;-0.20;99.90
5492;DHT22;2768;53.540;10.224;2024-01-07T17:36:34;-0.30;99.90
5492;DHT22;2768;53.540;10.224;2024-01-07T17:42:27;-0.70;99.90
5492;DHT22;2768;53.540;10.224;2024-01-07T17:48:22;-0.70;99.90
5492;DHT22;2768;53.540;10.224;2024-01-07T17:54:16;-0.50;99.90
5492;DHT22;2768;53.540;10.224;2024-01-07T18:00:11;-0.40;99.90
5492;DHT22;2768;53.540;10.224;2024-01-07T18:06:06;-0.30;99.90
5492;DHT22;2768;53.540;10.224;2024-01-07T18:12:00;-0.40;99.90
5492;DHT22;2768;53.540;10.224;2024-01-07T18:17:53;-0.60;99.90
5492;DHT22;2768;53.540;10.224;2024-01-07T18:23:48;-0.20;99.90
5492;DHT22;2768;53.540;10.224;2024-01-07T18:29:42;-0.20;99.90
5492;DHT22;2768;53.540;10.224;2024-01-07T18:35:36;-0.20;99.90
5492;DHT22;2768;53.540;10.224;2024-01-07T18:41:31;-0.30;99.90
5492;DHT22;2768;53.540;10.224;2024-01-07T18:47:24;-0.40;99.90
5492;DHT22;2768;53.540;10.224;2024-01-07T18:53:19;-0.40;99.90
5492;DHT22;2768;53.540;10.224;2024-01-07T18:59:14;-0.50;99.90
5492;DHT22;2768;53.540;10.224;2024-01-07T19:05:08;-0.40;99.90
5492;DHT22;2768;53.540;10.224;2024-01-07T19:11:02;-0.50;99.90
5492;DHT22;2768;53.540;10.224;2024-01-07T19:16:57;-0.60;99.90
5492;DHT22;2768;53.540;10.224;2024-01-07T19:22:51;-0.50;99.90
5492;DHT22;2768;53.540;10.224;2024-01-07T19:28:44;-0.40;99.90
5492;DHT22;2768;53.540;10.224;2024-01-07T19:34:40;-0.50;99.90
5492;DHT22;2768;53.540;10.224;2024-01-07T19:40:33;-0.50;99.90
5492;DHT22;2768;53.540;10.224;2024-01-07T19:46:28;-0.40;99.90
5492;DHT22;2768;53.540;10.224;2024-01-07T19:52:24;-0.50;99.90
5492;DHT22;2768;53.540;10.224;2024-01-07T19:58:18;-0.40;99.90
5492;DHT22;2768;53.540;10.224;2024-01-07T20:04:13;-0.60;99.90
5492;DHT22;2768;53.540;10.224;2024-01-07T20:10:08;-0.60;99.90
5492;DHT22;2768;53.540;10.224;2024-01-07T20:16:02;-0.40;99.90
5492;DHT22;2768;53.540;10.224;2024-01-07T20:21:55;-0.50;99.90
5492;DHT22;2768;53.540;10.224;2024-01-07T20:27:50;-0.20;99.90
5492;DHT22;2768;53.540;10.224;2024-01-07T20:33:44;-0.10;99.90
5492;DHT22;2768;53.540;10.224;2024-01-07T20:39:37;0.10;99.90
5492;DHT22;2768;53.540;10.224;2024-01-07T20:45:33;0.00;99.90
5492;DHT22;2768;53.540;10.224;2024-01-07T20:51:27;0.20;99.90
5492;DHT22;2768;53.540;10.224;2024-01-07T20:57:21;0.10;99.90
5492;DHT22;2768;53.540;10.224;2024-01-07T21:03:16;0.00;99.90
5492;DHT22;2768;53.540;10.224;2024-01-07T21:09:09;-0.10;99.90
5492;DHT22;2768;53.540;10.224;2024-01-07T21:15:04;-0.40;99.90
5492;DHT22;2768;53.540;10.224;2024-01-07T21:20:59;-0.50;1.00
5492;DHT22;2768;53.540;10.224;2024-01-07T21:26:53;-0.50;1.00
5492;DHT22;2768;53.540;10.224;2024-01-07T21:32:47;-0.80;1.00
5492;DHT22;2768;53.540;10.224;2024-01-07T21:38:43;-0.70;1.00
5492;DHT22;2768;53.540;10.224;2024-01-07T21:44:36;-0.50;1.00
5492;DHT22;2768;53.540;10.224;2024-01-07T21:50:29;-0.60;1.00
5492;DHT22;2768;53.540;10.224;2024-01-07T21:56:24;-0.70;1.00
5492;DHT22;2768;53.540;10.224;2024-01-07T22:02:17;-0.80;1.00
5492;DHT22;2768;53.540;10.224;2024-01-07T22:08:11;-0.60;1.00
5492;DHT22;2768;53.540;10.224;2024-01-07T22:14:06;-0.80;1.00
5492;DHT22;2768;53.540;10.224;2024-01-07T22:19:59;-0.70;1.00
5492;DHT22;2768;53.540;10.224;2024-01-07T22:25:52;-0.70;1.00
5492;DHT22;2768;53.540;10.224;2024-01-07T22:31:47;-0.50;1.00
5492;DHT22;2768;53.540;10.224;2024-01-07T22:37:40;-0.40;1.00
5492;DHT22;2768;53.540;10.224;2024-01-07T22:43:34;-0.30;1.00
5492;DHT22;2768;53.540;10.224;2024-01-07T22:49:29;-0.30;1.00
5492;DHT22;2768;53.540;10.224;2024-01-07T22:55:22;-0.10;1.00
5492;DHT22;2768;53.540;10.224;2024-01-07T23:01:25;0.00;1.00
5492;DHT22;2768;53.540;10.224;2024-01-07T23:07:20;0.10;9.40
5492;DHT22;2768;53.540;10.224;2024-01-07T23:13:13;0.10;2.20
5492;DHT22;2768;53.540;10.224;2024-01-07T23:19:06;0.00;3.70
5492;DHT22;2768;53.540;10.224;2024-01-07T23:25:01;0.00;1.00
5492;DHT22;2768;53.540;10.224;2024-01-07T23:30:56;0.10;1.00
5492;DHT22;2768;53.540;10.224;2024-01-07T23:36:49;-0.10;1.00
5492;DHT22;2768;53.540;10.224;2024-01-07T23:42:44;0.00;1.00
5492;DHT22;2768;53.540;10.224;2024-01-07T23:48:37;0.30;1.00
5492;DHT22;2768;53.540;10.224;2024-01-07T23:54:31;0.10;1.00
